createdAt,value
2018-07-02T00:00:55.473Z,55.2
2018-07-02T00:01:56.151Z,54.8
2018-07-02T00:02:56.881Z,55.2
2018-07-02T00:03:57.608Z,55.3
2018-07-02T00:04:58.287Z,55.4
2018-07-02T00:05:58.964Z,55.6
2018-07-02T00:06:59.644Z,55.5
2018-07-02T00:08:00.372Z,55.4
2018-07-02T00:09:01.049Z,55.7
2018-07-02T00:10:01.728Z,56.1
2018-07-02T00:11:02.406Z,56.5
2018-07-02T00:12:03.084Z,56.2
2018-07-02T00:13:03.811Z,56.6
2018-07-02T00:14:04.489Z,56.7
2018-07-02T00:15:05.167Z,56.6
2018-07-02T00:16:05.846Z,56.6
2018-07-02T00:17:06.573Z,56.7
2018-07-02T00:18:07.247Z,56.5
2018-07-02T00:19:07.976Z,56.2
2018-07-02T00:20:08.653Z,56.5
2018-07-02T00:21:09.331Z,56.8
2018-07-02T00:22:10.057Z,57.1
2018-07-02T00:23:10.733Z,57.0
2018-07-02T00:24:11.463Z,56.9
2018-07-02T00:25:12.143Z,56.5
2018-07-02T00:26:12.818Z,57.0
2018-07-02T00:27:13.499Z,57.0
2018-07-02T00:28:14.176Z,57.6
2018-07-02T00:29:14.904Z,57.4
2018-07-02T00:30:15.583Z,57.4
2018-07-02T00:31:16.260Z,57.8
2018-07-02T00:32:16.987Z,57.7
2018-07-02T00:33:17.664Z,57.6
2018-07-02T00:34:18.342Z,57.6
2018-07-02T00:35:19.018Z,57.6
2018-07-02T00:36:19.748Z,57.6
2018-07-02T00:37:20.475Z,58.1
2018-07-02T00:38:21.153Z,57.6
2018-07-02T00:39:21.831Z,57.6
2018-07-02T00:40:22.507Z,57.6
2018-07-02T00:41:23.187Z,57.6
2018-07-02T00:42:23.913Z,57.6
2018-07-02T00:43:24.590Z,57.8
2018-07-02T00:44:25.267Z,57.7
2018-07-02T00:45:25.997Z,57.6
2018-07-02T00:46:26.723Z,58.2
2018-07-02T00:47:27.448Z,58.0
2018-07-02T00:48:28.126Z,57.9
2018-07-02T00:49:28.805Z,57.9
2018-07-02T00:50:29.534Z,57.8
2018-07-02T00:51:30.211Z,58.3
2018-07-02T00:52:30.889Z,58.6
2018-07-02T00:53:31.567Z,58.6
2018-07-02T00:54:32.293Z,58.7
2018-07-02T00:55:32.971Z,58.5
2018-07-02T00:56:33.650Z,58.4
2018-07-02T00:57:34.375Z,58.7
2018-07-02T00:58:35.052Z,58.3
2018-07-02T00:59:35.730Z,59.1
2018-07-02T01:00:36.408Z,59.1
2018-07-02T01:01:37.085Z,59.1
2018-07-02T01:02:37.811Z,59.2
2018-07-02T01:03:38.492Z,59.1
2018-07-02T01:04:39.170Z,58.8
2018-07-02T01:05:39.845Z,59.0
2018-07-02T01:06:40.521Z,59.0
2018-07-02T01:07:41.198Z,59.1
2018-07-02T01:08:41.877Z,59.1
2018-07-02T01:09:42.603Z,58.9
2018-07-02T01:10:43.281Z,59.3
2018-07-02T01:11:43.958Z,59.3
2018-07-02T01:12:44.727Z,59.7
2018-07-02T01:13:45.405Z,59.5
2018-07-02T01:14:46.082Z,59.8
2018-07-02T01:15:46.760Z,59.7
2018-07-02T01:16:47.439Z,59.8
2018-07-02T01:17:48.166Z,59.3
2018-07-02T01:18:48.844Z,59.7
2018-07-02T01:19:49.521Z,60.0
2018-07-02T01:20:50.199Z,59.7
2018-07-02T01:21:50.926Z,59.9
2018-07-02T01:22:51.654Z,60.3
2018-07-02T01:23:52.343Z,60.2
2018-07-02T01:24:53.056Z,60.4
2018-07-02T01:25:53.732Z,60.6
2018-07-02T01:26:54.459Z,60.8
2018-07-02T01:27:55.136Z,60.4
2018-07-02T01:28:55.812Z,60.5
2018-07-02T01:29:56.489Z,60.7
2018-07-02T01:30:57.168Z,60.8
2018-07-02T01:31:57.895Z,60.9
2018-07-02T01:32:58.573Z,60.8
2018-07-02T01:33:59.249Z,60.8
2018-07-02T01:34:59.927Z,61.0
2018-07-02T01:36:00.604Z,60.8
2018-07-02T01:37:01.288Z,61.0
2018-07-02T01:38:02.049Z,60.9
2018-07-02T01:39:02.775Z,61.1
2018-07-02T01:40:03.456Z,61.2
2018-07-02T01:41:04.170Z,61.6
2018-07-02T01:42:04.846Z,61.3
2018-07-02T01:43:05.524Z,61.3
2018-07-02T01:44:06.251Z,61.5
2018-07-02T01:45:06.930Z,61.5
2018-07-02T01:46:07.605Z,61.6
2018-07-02T01:47:08.284Z,62.1
2018-07-02T01:48:09.010Z,62.0
2018-07-02T01:49:09.686Z,62.2
2018-07-02T01:50:10.363Z,62.3
2018-07-02T01:51:11.091Z,62.3
2018-07-02T01:52:11.768Z,62.1
2018-07-02T01:53:12.445Z,62.2
2018-07-02T01:54:13.127Z,62.4
2018-07-02T01:55:13.800Z,62.5
2018-07-02T01:56:14.527Z,62.5
2018-07-02T01:57:15.206Z,62.6
2018-07-02T01:58:15.933Z,62.2
2018-07-02T01:59:16.613Z,62.8
2018-07-02T02:00:17.289Z,63.0
2018-07-02T02:01:17.966Z,62.7
2018-07-02T02:02:18.693Z,62.6
2018-07-02T02:03:19.369Z,62.8
2018-07-02T02:04:20.144Z,62.3
2018-07-02T02:05:20.821Z,62.3
2018-07-02T02:06:21.499Z,62.5
2018-07-02T02:07:22.225Z,62.0
2018-07-02T02:08:22.901Z,61.5
2018-07-02T02:09:23.579Z,61.5
2018-07-02T02:10:24.306Z,61.1
2018-07-02T02:11:24.982Z,61.2
2018-07-02T02:12:25.709Z,60.9
2018-07-02T02:13:26.387Z,61.1
2018-07-02T02:14:27.064Z,60.8
2018-07-02T02:15:27.739Z,60.9
2018-07-02T02:16:28.416Z,60.8
2018-07-02T02:17:29.142Z,61.0
2018-07-02T02:18:29.818Z,60.8
2018-07-02T02:19:30.546Z,60.8
2018-07-02T02:20:31.224Z,61.3
2018-07-02T02:21:31.901Z,61.1
2018-07-02T02:22:32.630Z,61.2
2018-07-02T02:23:33.402Z,61.1
2018-07-02T02:24:34.084Z,61.2
2018-07-02T02:25:34.757Z,60.9
2018-07-02T02:26:35.437Z,61.4
2018-07-02T02:27:36.111Z,61.0
2018-07-02T02:28:36.837Z,61.6
2018-07-02T02:29:37.564Z,61.4
2018-07-02T02:30:38.240Z,61.8
2018-07-02T02:31:38.922Z,61.7
2018-07-02T02:32:39.594Z,61.2
2018-07-02T02:33:40.324Z,62.0
2018-07-02T02:34:41.046Z,62.2
2018-07-02T02:35:41.725Z,62.0
2018-07-02T02:36:42.402Z,61.8
2018-07-02T02:37:43.078Z,62.0
2018-07-02T02:38:43.806Z,62.1
2018-07-02T02:39:44.483Z,62.1
2018-07-02T02:40:45.161Z,62.3
2018-07-02T02:41:45.840Z,62.6
2018-07-02T02:42:46.568Z,62.6
2018-07-02T02:43:47.295Z,62.7
2018-07-02T02:44:48.024Z,62.9
2018-07-02T02:45:48.712Z,62.8
2018-07-02T02:46:49.418Z,63.0
2018-07-02T02:47:50.096Z,63.7
2018-07-02T02:48:50.826Z,63.4
2018-07-02T02:49:51.552Z,63.5
2018-07-02T02:50:52.228Z,63.8
2018-07-02T02:51:52.908Z,63.8
2018-07-02T02:52:53.593Z,63.9
2018-07-02T02:53:54.263Z,64.1
2018-07-02T02:54:54.993Z,64.3
2018-07-02T02:55:55.670Z,64.4
2018-07-02T02:56:56.349Z,64.6
2018-07-02T02:57:57.027Z,64.5
2018-07-02T02:58:57.704Z,64.4
2018-07-02T02:59:58.431Z,64.4
2018-07-02T03:00:59.112Z,64.4
2018-07-02T03:01:59.884Z,64.7
2018-07-02T03:03:00.563Z,64.4
2018-07-02T03:04:01.241Z,64.5
2018-07-02T03:05:01.921Z,64.4
2018-07-02T03:06:02.601Z,64.6
2018-07-02T03:07:03.329Z,64.4
2018-07-02T03:08:04.010Z,64.6
2018-07-02T03:09:04.784Z,64.4
2018-07-02T03:10:05.462Z,64.6
2018-07-02T03:11:06.139Z,64.4
2018-07-02T03:12:06.818Z,64.7
2018-07-02T03:13:07.563Z,65.0
2018-07-02T03:14:08.225Z,64.8
2018-07-02T03:15:08.952Z,65.0
2018-07-02T03:16:09.672Z,64.9
2018-07-02T03:17:10.389Z,65.0
2018-07-02T03:18:11.119Z,65.3
2018-07-02T03:19:11.795Z,65.2
2018-07-02T03:20:12.486Z,65.0
2018-07-02T03:21:13.194Z,65.2
2018-07-02T03:22:13.874Z,65.2
2018-07-02T03:23:14.605Z,65.2
2018-07-02T03:24:15.284Z,65.1
2018-07-02T03:25:16.014Z,65.4
2018-07-02T03:26:16.695Z,65.0
2018-07-02T03:27:17.373Z,64.9
2018-07-02T03:28:18.103Z,65.1
2018-07-02T03:29:18.781Z,65.0
2018-07-02T03:30:19.462Z,65.1
2018-07-02T03:31:20.142Z,64.9
2018-07-02T03:32:20.823Z,65.3
2018-07-02T03:33:21.553Z,65.7
2018-07-02T03:34:22.282Z,65.4
2018-07-02T03:35:22.964Z,65.7
2018-07-02T03:36:23.641Z,65.5
2018-07-02T03:37:24.320Z,65.4
2018-07-02T03:38:25.051Z,65.6
2018-07-02T03:39:25.782Z,65.5
2018-07-02T03:40:26.459Z,65.7
2018-07-02T03:41:27.140Z,65.6
2018-07-02T03:42:27.821Z,65.5
2018-07-02T03:43:28.498Z,65.5
2018-07-02T03:44:29.229Z,65.5
2018-07-02T03:45:29.908Z,65.4
2018-07-02T03:46:30.639Z,65.8
2018-07-02T03:47:31.368Z,65.7
2018-07-02T03:48:32.049Z,65.7
2018-07-02T03:49:32.728Z,65.9
2018-07-02T03:50:33.409Z,66.0
2018-07-02T03:51:34.090Z,66.0
2018-07-02T03:52:34.821Z,65.9
2018-07-02T03:53:35.500Z,65.9
2018-07-02T03:54:36.226Z,65.8
2018-07-02T03:55:36.906Z,66.2
2018-07-02T03:56:37.586Z,66.2
2018-07-02T03:57:38.316Z,66.7
2018-07-02T03:58:38.996Z,66.4
2018-07-02T03:59:39.676Z,66.4
2018-07-02T04:00:40.354Z,66.1
2018-07-02T04:01:41.034Z,65.9
2018-07-02T04:02:41.765Z,66.0
2018-07-02T04:03:42.447Z,66.6
2018-07-02T04:04:43.173Z,66.7
2018-07-02T04:05:43.903Z,66.6
2018-07-02T04:06:44.589Z,66.3
2018-07-02T04:07:45.307Z,66.3
2018-07-02T04:08:45.987Z,66.3
2018-07-02T04:09:46.668Z,66.1
2018-07-02T04:10:47.399Z,66.5
2018-07-02T04:11:48.079Z,66.3
2018-07-02T04:12:48.759Z,66.4
2018-07-02T04:13:49.441Z,66.5
2018-07-02T04:14:50.165Z,66.6
2018-07-02T04:15:50.852Z,66.6
2018-07-02T04:16:51.533Z,66.4
2018-07-02T04:17:52.213Z,66.5
2018-07-02T04:18:52.894Z,66.9
2018-07-02T04:19:53.575Z,66.9
2018-07-02T04:20:54.305Z,66.6
2018-07-02T04:21:55.037Z,66.9
2018-07-02T04:22:55.719Z,66.4
2018-07-02T04:23:56.399Z,66.5
2018-07-02T04:24:57.081Z,66.3
2018-07-02T04:25:57.784Z,66.3
2018-07-02T04:26:58.491Z,66.5
2018-07-02T04:27:59.172Z,66.2
2018-07-02T04:28:59.852Z,66.0
2018-07-02T04:30:00.535Z,66.2
2018-07-02T04:31:01.266Z,65.9
2018-07-02T04:32:01.945Z,65.8
2018-07-02T04:33:02.627Z,66.1
2018-07-02T04:34:03.310Z,65.5
2018-07-02T04:35:03.989Z,65.6
2018-07-02T04:36:04.721Z,65.6
2018-07-02T04:37:05.399Z,65.7
2018-07-02T04:38:06.079Z,65.5
2018-07-02T04:39:06.760Z,65.5
2018-07-02T04:40:07.491Z,65.6
2018-07-02T04:41:08.172Z,65.6
2018-07-02T04:42:08.853Z,65.5
2018-07-02T04:43:09.584Z,65.7
2018-07-02T04:44:10.267Z,65.7
2018-07-02T04:45:11.011Z,65.5
2018-07-02T04:46:11.769Z,65.2
2018-07-02T04:47:12.452Z,65.2
2018-07-02T04:48:13.132Z,64.7
2018-07-02T04:49:13.813Z,64.9
2018-07-02T04:50:14.509Z,65.1
2018-07-02T04:51:15.321Z,65.1
2018-07-02T04:52:15.950Z,64.8
2018-07-02T04:53:16.625Z,64.9
2018-07-02T04:54:17.308Z,64.8
2018-07-02T04:55:18.039Z,64.8
2018-07-02T04:56:18.721Z,64.8
2018-07-02T04:57:19.402Z,64.5
2018-07-02T04:58:20.132Z,64.6
2018-07-02T04:59:20.813Z,64.8
2018-07-02T05:00:21.555Z,64.6
2018-07-02T05:01:22.227Z,64.2
2018-07-02T05:02:22.905Z,64.1
2018-07-02T05:03:23.638Z,63.6
2018-07-02T05:04:24.323Z,63.9
2018-07-02T05:05:25.002Z,63.8
2018-07-02T05:06:25.728Z,64.1
2018-07-02T05:07:26.463Z,63.6
2018-07-02T05:08:27.193Z,63.3
2018-07-02T05:09:27.875Z,63.0
2018-07-02T05:10:28.553Z,63.5
2018-07-02T05:11:29.235Z,63.5
2018-07-02T05:12:29.968Z,63.4
2018-07-02T05:13:30.652Z,63.1
2018-07-02T05:14:31.381Z,62.8
2018-07-02T05:15:32.066Z,62.7
2018-07-02T05:16:32.745Z,62.5
2018-07-02T05:17:33.476Z,62.5
2018-07-02T05:18:34.157Z,62.5
2018-07-02T05:19:34.837Z,62.6
2018-07-02T05:20:35.518Z,62.5
2018-07-02T05:21:36.199Z,62.6
2018-07-02T05:22:36.931Z,62.0
2018-07-02T05:23:37.611Z,62.6
2018-07-02T05:24:38.294Z,62.5
2018-07-02T05:25:38.975Z,62.3
2018-07-02T05:26:39.707Z,62.4
2018-07-02T05:27:40.438Z,62.3
2018-07-02T05:28:41.124Z,62.4
2018-07-02T05:29:41.853Z,63.1
2018-07-02T05:30:42.535Z,63.1
2018-07-02T05:31:43.217Z,62.5
2018-07-02T05:32:43.897Z,62.8
2018-07-02T05:33:44.579Z,62.6
2018-07-02T05:34:45.260Z,62.9
2018-07-02T05:35:45.943Z,62.9
2018-07-02T05:36:46.625Z,62.5
2018-07-02T05:37:47.356Z,62.6
2018-07-02T05:38:48.345Z,62.4
2018-07-02T05:39:48.718Z,61.5
2018-07-02T05:40:49.456Z,61.2
2018-07-02T05:41:50.184Z,60.9
2018-07-02T05:42:50.860Z,61.2
2018-07-02T05:43:51.540Z,60.6
2018-07-02T05:44:52.224Z,60.5
2018-07-02T05:45:52.906Z,60.3
2018-07-02T05:46:53.588Z,60.4
2018-07-02T05:47:54.269Z,60.7
2018-07-02T05:48:54.950Z,60.5
2018-07-02T05:49:55.634Z,60.8
2018-07-02T05:50:56.318Z,60.9
2018-07-02T05:51:57.047Z,60.8
2018-07-02T05:52:57.730Z,60.6
2018-07-02T05:53:58.410Z,60.6
2018-07-02T05:54:59.167Z,60.5
2018-07-02T05:55:59.822Z,60.2
2018-07-02T05:57:00.504Z,59.8
2018-07-02T05:58:01.187Z,59.8
2018-07-02T05:59:01.871Z,59.7
2018-07-02T06:00:02.694Z,59.4
2018-07-02T06:01:03.332Z,59.6
2018-07-02T06:02:04.014Z,59.7
2018-07-02T06:03:04.697Z,59.3
2018-07-02T06:04:05.382Z,58.5
2018-07-02T06:05:06.111Z,59.3
2018-07-02T06:06:06.841Z,59.0
2018-07-02T06:07:07.525Z,59.0
2018-07-02T06:08:08.229Z,58.6
2018-07-02T06:09:08.888Z,58.4
2018-07-02T06:10:09.620Z,58.0
2018-07-02T06:11:10.303Z,58.1
2018-07-02T06:12:10.991Z,57.8
2018-07-02T06:13:11.724Z,56.7
2018-07-02T06:14:12.405Z,54.7
2018-07-02T06:15:13.141Z,50.6
2018-07-02T06:16:13.826Z,47.5
2018-07-02T06:17:14.511Z,44.8
2018-07-02T06:18:15.195Z,42.1
2018-07-02T06:19:15.930Z,39.7
2018-07-02T06:20:16.616Z,37.4
2018-07-02T06:21:17.351Z,35.3
2018-07-02T06:22:18.038Z,33.2
2018-07-02T06:23:18.826Z,31.2
2018-07-02T06:24:19.514Z,30.1
2018-07-02T06:25:20.205Z,28.5
2018-07-02T06:26:20.893Z,26.3
2018-07-02T06:27:21.589Z,25.1
2018-07-02T06:28:22.326Z,24.9
2018-07-02T06:29:23.018Z,23.9
2018-07-02T06:30:23.758Z,22.6
2018-07-02T06:31:24.404Z,22.0
2018-07-02T06:32:25.146Z,20.9
2018-07-02T06:33:25.837Z,21.1
2018-07-02T06:34:26.529Z,20.6
2018-07-02T06:35:27.273Z,20.0
2018-07-02T06:36:27.969Z,19.3
2018-07-02T06:37:28.659Z,19.8
2018-07-02T06:38:29.353Z,19.2
2018-07-02T06:39:30.097Z,18.6
2018-07-02T06:40:30.791Z,18.3
2018-07-02T06:41:31.486Z,18.2
2018-07-02T06:42:32.183Z,17.9
2018-07-02T06:43:32.879Z,17.3
2018-07-02T06:44:33.573Z,16.9
2018-07-02T06:45:34.271Z,17.0
2018-07-02T06:46:34.967Z,16.1
2018-07-02T06:47:35.663Z,15.8
2018-07-02T06:48:36.406Z,15.4
2018-07-02T06:49:37.108Z,15.4
2018-07-02T06:50:37.850Z,15.0
2018-07-02T06:51:38.550Z,15.0
2018-07-02T06:52:39.294Z,14.9
2018-07-02T06:53:39.990Z,14.9
2018-07-02T06:54:40.685Z,15.3
2018-07-02T06:55:41.382Z,14.7
2018-07-02T06:56:42.132Z,14.6
2018-07-02T06:57:42.872Z,14.3
2018-07-02T06:58:43.603Z,14.5
2018-07-02T06:59:44.268Z,14.3
2018-07-02T07:00:45.026Z,13.9
2018-07-02T07:01:45.710Z,13.6
2018-07-02T07:02:46.406Z,13.6
2018-07-02T07:03:47.152Z,13.2
2018-07-02T07:04:47.851Z,12.9
2018-07-02T07:05:48.543Z,12.7
2018-07-02T07:06:49.238Z,12.8
2018-07-02T07:07:50.034Z,12.6
2018-07-02T07:08:50.738Z,12.5
2018-07-02T07:09:51.425Z,12.7
2018-07-02T07:10:52.121Z,12.6
2018-07-02T07:11:52.816Z,12.4
2018-07-02T07:12:53.517Z,11.8
2018-07-02T07:13:54.213Z,11.8
2018-07-02T07:14:54.906Z,11.8
2018-07-02T07:15:55.603Z,12.0
2018-07-02T07:16:56.349Z,11.8
2018-07-02T07:17:57.047Z,11.7
2018-07-02T07:18:57.744Z,11.3
2018-07-02T07:19:58.488Z,11.2
2018-07-02T07:20:59.185Z,11.1
2018-07-02T07:21:59.933Z,11.1
2018-07-02T07:23:00.630Z,11.2
2018-07-02T07:24:01.377Z,10.6
2018-07-02T07:25:02.075Z,10.8
2018-07-02T07:26:02.774Z,11.0
2018-07-02T07:27:03.521Z,10.9
2018-07-02T07:28:04.268Z,10.5
2018-07-02T07:29:04.966Z,10.7
2018-07-02T07:30:05.661Z,10.7
2018-07-02T07:31:06.370Z,10.5
2018-07-02T07:32:07.055Z,10.6
2018-07-02T07:33:07.754Z,10.4
2018-07-02T07:34:08.451Z,10.5
2018-07-02T07:35:09.150Z,10.4
2018-07-02T07:36:09.848Z,10.2
2018-07-02T07:37:10.597Z,10.5
2018-07-02T07:38:11.294Z,10.5
2018-07-02T07:39:12.040Z,10.7
2018-07-02T07:40:12.734Z,10.6
2018-07-02T07:41:13.431Z,10.7
2018-07-02T07:42:14.177Z,10.8
2018-07-02T07:43:14.874Z,11.2
2018-07-02T07:44:15.571Z,11.6
2018-07-02T07:45:16.267Z,11.8
2018-07-02T07:46:17.013Z,11.6
2018-07-02T07:47:17.710Z,11.4
2018-07-02T07:48:18.407Z,11.1
2018-07-02T07:49:19.104Z,11.0
2018-07-02T07:50:19.898Z,11.1
2018-07-02T07:51:20.646Z,10.9
2018-07-02T07:52:21.343Z,10.5
2018-07-02T07:53:22.040Z,10.7
2018-07-02T07:54:22.738Z,10.5
2018-07-02T07:55:23.435Z,10.5
2018-07-02T07:56:24.184Z,10.3
2018-07-02T07:57:24.877Z,10.4
2018-07-02T07:58:25.573Z,10.3
2018-07-02T07:59:26.279Z,10.4
2018-07-02T08:00:27.022Z,10.2
2018-07-02T08:01:27.712Z,9.8
2018-07-02T08:02:28.471Z,10.0
2018-07-02T08:03:29.154Z,10.0
2018-07-02T08:04:29.899Z,9.8
2018-07-02T08:05:30.593Z,9.3
2018-07-02T08:06:31.288Z,8.8
2018-07-02T08:07:31.984Z,9.3
2018-07-02T08:08:32.680Z,9.3
2018-07-02T08:09:33.424Z,9.7
2018-07-02T08:10:34.147Z,9.8
2018-07-02T08:11:34.816Z,9.1
2018-07-02T08:12:35.512Z,9.3
2018-07-02T08:13:36.208Z,9.3
2018-07-02T08:14:36.903Z,9.3
2018-07-02T08:15:37.597Z,9.2
2018-07-02T08:16:38.292Z,9.2
2018-07-02T08:17:39.034Z,8.9
2018-07-02T08:18:39.725Z,8.8
2018-07-02T08:19:40.468Z,8.8
2018-07-02T08:20:41.212Z,9.5
2018-07-02T08:21:41.957Z,9.4
2018-07-02T08:22:42.648Z,9.8
2018-07-02T08:23:43.343Z,9.7
2018-07-02T08:24:44.039Z,9.6
2018-07-02T08:25:44.736Z,9.7
2018-07-02T08:26:45.477Z,9.8
2018-07-02T08:27:46.174Z,9.7
2018-07-02T08:28:46.868Z,9.6
2018-07-02T08:29:47.561Z,9.3
2018-07-02T08:30:48.304Z,9.3
2018-07-02T08:31:48.999Z,9.9
2018-07-02T08:32:49.704Z,9.3
2018-07-02T08:33:50.388Z,9.5
2018-07-02T08:34:51.082Z,9.3
2018-07-02T08:35:51.827Z,9.9
2018-07-02T08:36:52.523Z,10.4
2018-07-02T08:37:53.217Z,10.3
2018-07-02T08:38:53.916Z,10.3
2018-07-02T08:39:54.654Z,10.6
2018-07-02T08:40:55.399Z,11.1
2018-07-02T08:41:56.095Z,11.7
2018-07-02T08:42:56.788Z,11.4
2018-07-02T08:43:57.533Z,11.7
2018-07-02T08:44:58.228Z,11.3
2018-07-02T08:45:58.921Z,10.2
2018-07-02T08:46:59.614Z,9.8
2018-07-02T08:48:00.360Z,10.6
2018-07-02T08:49:01.056Z,10.6
2018-07-02T08:50:01.752Z,10.5
2018-07-02T08:51:02.446Z,10.8
2018-07-02T08:52:03.141Z,11.0
2018-07-02T08:53:03.886Z,10.5
2018-07-02T08:54:04.583Z,10.5
2018-07-02T08:55:05.279Z,10.7
2018-07-02T08:56:06.022Z,10.7
2018-07-02T08:57:06.717Z,10.3
2018-07-02T08:58:07.460Z,9.5
2018-07-02T08:59:08.153Z,9.2
2018-07-02T09:00:08.849Z,9.8
2018-07-02T09:01:09.545Z,10.0
2018-07-02T09:02:10.290Z,10.0
2018-07-02T09:03:10.983Z,10.1
2018-07-02T09:04:11.675Z,10.0
2018-07-02T09:05:12.368Z,9.7
2018-07-02T09:06:13.061Z,9.4
2018-07-02T09:07:13.805Z,9.7
2018-07-02T09:08:14.498Z,9.3
2018-07-02T09:09:15.194Z,9.2
2018-07-02T09:10:15.937Z,9.0
2018-07-02T09:11:16.678Z,8.7
2018-07-02T09:12:17.422Z,9.3
2018-07-02T09:13:18.117Z,9.6
2018-07-02T09:14:18.814Z,9.7
2018-07-02T09:15:19.556Z,9.6
2018-07-02T09:16:20.251Z,9.7
2018-07-02T09:17:20.948Z,9.2
2018-07-02T09:18:21.641Z,9.2
2018-07-02T09:19:22.333Z,8.8
2018-07-02T09:20:23.075Z,9.2
2018-07-02T09:21:23.821Z,9.2
2018-07-02T09:22:24.512Z,9.2
2018-07-02T09:23:25.203Z,9.2
2018-07-02T09:24:25.899Z,9.4
2018-07-02T09:25:26.644Z,9.1
2018-07-02T09:26:27.338Z,8.8
2018-07-02T09:27:28.032Z,9.3
2018-07-02T09:28:28.727Z,9.4
2018-07-02T09:29:29.420Z,9.5
2018-07-02T09:30:30.166Z,9.5
2018-07-02T09:31:30.904Z,9.2
2018-07-02T09:32:31.615Z,9.0
2018-07-02T09:33:32.290Z,9.3
2018-07-02T09:34:32.983Z,9.3
2018-07-02T09:35:33.729Z,9.1
2018-07-02T09:36:34.422Z,9.4
2018-07-02T09:37:35.119Z,10.1
2018-07-02T09:38:35.863Z,10.2
2018-07-02T09:39:36.558Z,10.3
2018-07-02T09:40:37.303Z,10.3
2018-07-02T09:41:38.002Z,10.1
2018-07-02T09:42:38.743Z,10.0
2018-07-02T09:43:39.439Z,10.1
2018-07-02T09:44:40.181Z,9.8
2018-07-02T09:45:40.876Z,10.7
2018-07-02T09:46:41.621Z,10.4
2018-07-02T09:47:42.314Z,10.6
2018-07-02T09:48:43.009Z,10.6
2018-07-02T09:49:43.755Z,10.5
2018-07-02T09:50:44.449Z,10.7
2018-07-02T09:51:45.145Z,10.7
2018-07-02T09:52:45.839Z,10.1
2018-07-02T09:53:46.536Z,10.4
2018-07-02T09:54:47.232Z,11.0
2018-07-02T09:55:47.973Z,11.3
2018-07-02T09:56:48.667Z,11.5
2018-07-02T09:57:49.414Z,11.7
2018-07-02T09:58:50.155Z,12.1
2018-07-02T09:59:50.898Z,11.9
2018-07-02T10:00:51.592Z,12.2
2018-07-02T10:01:52.288Z,12.0
2018-07-02T10:02:53.033Z,12.5
2018-07-02T10:03:53.782Z,12.9
2018-07-02T10:04:54.471Z,13.0
2018-07-02T10:05:55.167Z,13.2
2018-07-02T10:06:55.862Z,13.1
2018-07-02T10:07:56.607Z,13.2
2018-07-02T10:08:57.350Z,13.3
2018-07-02T10:09:58.044Z,13.1
2018-07-02T10:10:58.738Z,13.2
2018-07-02T10:11:59.433Z,12.7
2018-07-02T10:13:00.128Z,12.8
2018-07-02T10:14:00.873Z,13.1
2018-07-02T10:15:01.571Z,13.6
2018-07-02T10:16:02.264Z,14.4
2018-07-02T10:17:03.008Z,14.5
2018-07-02T10:18:03.704Z,14.4
2018-07-02T10:19:04.398Z,14.6
2018-07-02T10:20:05.092Z,14.6
2018-07-02T10:21:05.787Z,14.5
2018-07-02T10:22:06.530Z,14.4
2018-07-02T10:23:07.225Z,14.6
2018-07-02T10:24:07.918Z,15.2
2018-07-02T10:25:08.660Z,15.0
2018-07-02T10:26:09.353Z,15.3
2018-07-02T10:27:10.047Z,15.6
2018-07-02T10:28:10.740Z,15.6
2018-07-02T10:29:11.502Z,15.9
2018-07-02T10:30:12.218Z,16.1
2018-07-02T10:31:12.937Z,16.0
2018-07-02T10:32:13.648Z,16.4
2018-07-02T10:33:14.347Z,16.7
2018-07-02T10:34:15.037Z,16.8
2018-07-02T10:35:15.779Z,16.8
2018-07-02T10:36:16.473Z,16.8
2018-07-02T10:37:17.166Z,17.5
2018-07-02T10:38:17.858Z,17.4
2018-07-02T10:39:18.550Z,17.5
2018-07-02T10:40:19.294Z,18.1
2018-07-02T10:41:19.988Z,18.7
2018-07-02T10:42:20.681Z,18.6
2018-07-02T10:43:21.374Z,19.2
2018-07-02T10:44:22.119Z,19.0
2018-07-02T10:45:22.861Z,19.3
2018-07-02T10:46:23.554Z,19.9
2018-07-02T10:47:24.244Z,20.3
2018-07-02T10:48:24.938Z,20.8
2018-07-02T10:49:25.630Z,21.0
2018-07-02T10:50:26.349Z,21.3
2018-07-02T10:51:27.012Z,21.5
2018-07-02T10:52:27.705Z,21.8
2018-07-02T10:53:28.446Z,22.8
2018-07-02T10:54:29.141Z,22.6
2018-07-02T10:55:29.926Z,23.0
2018-07-02T10:56:30.616Z,22.6
2018-07-02T10:57:31.307Z,22.8
2018-07-02T10:58:32.049Z,22.6
2018-07-02T10:59:32.739Z,22.8
2018-07-02T11:00:33.431Z,22.8
2018-07-02T11:01:34.179Z,23.0
2018-07-02T11:02:34.914Z,23.2
2018-07-02T11:03:35.654Z,23.3
2018-07-02T11:04:36.345Z,23.2
2018-07-02T11:05:37.039Z,22.8
2018-07-02T11:06:37.775Z,23.3
2018-07-02T11:07:38.467Z,23.1
2018-07-02T11:08:39.205Z,23.6
2018-07-02T11:09:39.894Z,23.4
2018-07-02T11:10:40.584Z,23.2
2018-07-02T11:11:41.279Z,23.6
2018-07-02T11:12:41.967Z,24.0
2018-07-02T11:13:42.713Z,23.9
2018-07-02T11:14:43.448Z,24.3
2018-07-02T11:15:44.141Z,24.5
2018-07-02T11:16:44.880Z,24.6
2018-07-02T11:17:45.571Z,24.5
2018-07-02T11:18:46.261Z,25.1
2018-07-02T11:19:47.005Z,25.0
2018-07-02T11:20:47.742Z,24.9
2018-07-02T11:21:48.431Z,25.0
2018-07-02T11:22:49.124Z,25.3
2018-07-02T11:23:49.862Z,24.9
2018-07-02T11:24:50.601Z,24.6
2018-07-02T11:25:51.291Z,24.6
2018-07-02T11:26:52.031Z,24.4
2018-07-02T11:27:52.720Z,24.3
2018-07-02T11:28:53.409Z,24.4
2018-07-02T11:29:54.101Z,24.8
2018-07-02T11:30:54.841Z,25.6
2018-07-02T11:31:55.535Z,25.8
2018-07-02T11:32:56.226Z,25.8
2018-07-02T11:33:56.918Z,26.0
2018-07-02T11:34:57.608Z,25.8
2018-07-02T11:35:58.349Z,25.9
2018-07-02T11:36:59.039Z,25.8
2018-07-02T11:37:59.729Z,25.9
2018-07-02T11:39:00.420Z,25.8
2018-07-02T11:40:01.111Z,25.9
2018-07-02T11:41:01.851Z,25.9
2018-07-02T11:42:02.543Z,25.9
2018-07-02T11:43:03.233Z,26.0
2018-07-02T11:44:03.927Z,25.8
2018-07-02T11:45:04.611Z,26.1
2018-07-02T11:46:05.349Z,25.9
2018-07-02T11:47:06.039Z,26.1
2018-07-02T11:48:06.728Z,25.8
2018-07-02T11:49:07.469Z,25.7
2018-07-02T11:50:08.159Z,25.9
2018-07-02T11:51:08.848Z,25.6
2018-07-02T11:52:09.536Z,24.6
2018-07-02T11:53:10.326Z,24.7
2018-07-02T11:54:11.016Z,24.9
2018-07-02T11:55:11.704Z,25.0
2018-07-02T11:56:12.397Z,25.0
2018-07-02T11:57:13.084Z,25.3
2018-07-02T11:58:13.823Z,25.0
2018-07-02T11:59:14.515Z,25.0
2018-07-02T12:00:15.205Z,25.3
2018-07-02T12:01:15.896Z,25.6
2018-07-02T12:02:16.635Z,25.3
2018-07-02T12:03:17.326Z,25.2
2018-07-02T12:04:18.039Z,25.0
2018-07-02T12:05:18.759Z,24.6
2018-07-02T12:06:19.448Z,24.7
2018-07-02T12:07:20.189Z,25.3
2018-07-02T12:08:20.926Z,25.8
2018-07-02T12:09:21.665Z,25.6
2018-07-02T12:10:22.355Z,25.7
2018-07-02T12:11:23.094Z,25.8
2018-07-02T12:12:23.780Z,25.6
2018-07-02T12:13:24.471Z,25.7
2018-07-02T12:14:25.210Z,24.2
2018-07-02T12:15:25.949Z,23.8
2018-07-02T12:16:26.592Z,23.8
2018-07-02T12:17:27.327Z,23.6
2018-07-02T12:18:28.065Z,24.2
2018-07-02T12:19:28.754Z,23.3
2018-07-02T12:20:29.493Z,23.6
2018-07-02T12:21:30.182Z,24.0
2018-07-02T12:22:30.871Z,23.9
2018-07-02T12:23:31.561Z,23.9
2018-07-02T12:24:32.251Z,23.9
2018-07-02T12:25:32.992Z,23.9
2018-07-02T12:26:33.685Z,23.8
2018-07-02T12:27:34.375Z,23.9
2018-07-02T12:28:35.062Z,24.3
2018-07-02T12:29:35.753Z,23.9
2018-07-02T12:30:36.490Z,24.0
2018-07-02T12:31:37.179Z,24.2
2018-07-02T12:32:37.916Z,23.2
2018-07-02T12:33:38.607Z,23.2
2018-07-02T12:34:39.298Z,23.7
2018-07-02T12:35:40.038Z,23.6
2018-07-02T12:36:40.725Z,23.3
2018-07-02T12:37:41.414Z,23.0
2018-07-02T12:38:42.103Z,22.8
2018-07-02T12:39:42.841Z,22.9
2018-07-02T12:40:43.529Z,22.6
2018-07-02T12:41:44.269Z,23.3
2018-07-02T12:42:44.957Z,23.2
2018-07-02T12:43:45.696Z,22.5
2018-07-02T12:44:46.386Z,23.0
2018-07-02T12:45:47.074Z,23.0
2018-07-02T12:46:47.786Z,23.1
2018-07-02T12:47:48.503Z,22.6
2018-07-02T12:48:49.196Z,22.2
2018-07-02T12:49:49.884Z,22.8
2018-07-02T12:50:50.625Z,22.4
2018-07-02T12:51:51.361Z,23.0
2018-07-02T12:52:52.101Z,22.9
2018-07-02T12:53:52.791Z,22.7
2018-07-02T12:54:53.493Z,22.0
2018-07-02T12:55:54.217Z,21.9
2018-07-02T12:56:54.958Z,21.9
2018-07-02T12:57:55.696Z,22.4
2018-07-02T12:58:56.386Z,22.0
2018-07-02T12:59:57.075Z,21.4
2018-07-02T13:00:57.763Z,21.0
2018-07-02T13:01:58.452Z,21.2
2018-07-02T13:02:59.240Z,21.6
2018-07-02T13:03:59.979Z,21.8
2018-07-02T13:05:00.669Z,21.8
2018-07-02T13:06:01.357Z,21.9
2018-07-02T13:07:02.093Z,22.4
2018-07-02T13:08:02.781Z,22.7
2018-07-02T13:09:03.521Z,22.8
2018-07-02T13:10:04.263Z,21.8
2018-07-02T13:11:04.999Z,21.7
2018-07-02T13:12:05.697Z,21.7
2018-07-02T13:13:06.381Z,21.5
2018-07-02T13:14:07.070Z,21.7
2018-07-02T13:15:07.812Z,21.6
2018-07-02T13:16:08.498Z,21.6
2018-07-02T13:17:09.189Z,21.6
2018-07-02T13:18:09.875Z,21.5
2018-07-02T13:19:10.616Z,21.6
2018-07-02T13:20:11.304Z,21.7
2018-07-02T13:21:12.040Z,20.8
2018-07-02T13:22:12.729Z,21.3
2018-07-02T13:23:13.421Z,21.0
2018-07-02T13:24:14.111Z,20.8
2018-07-02T13:25:14.801Z,20.7
2018-07-02T13:26:15.489Z,21.6
2018-07-02T13:27:16.228Z,21.6
2018-07-02T13:28:16.917Z,21.6
2018-07-02T13:29:17.605Z,21.6
2018-07-02T13:30:18.297Z,21.5